Time;durP1;ratioP1;P1;durP2;ratioP2;P2;SDS_P1;SDS_P2;PMS_P1;PMS_P2;Temp;Humidity;BMP_temperature;BMP_pressure;BME280_temperature;BME280_humidity;BME280_pressure;Samples;Min_cycle;Max_cycle;Signal;HPM_P1;HPM_P2
2022/04/19 00:00:42;;;;;;;14.38;8.65;;;;;;;9.74;62.27;101411.69;5011794;28;20517;-51
2022/04/19 00:03:09;;;;;;;15.65;9.30;;;;;;;9.70;62.00;101415.56;5013552;28;20026;-51
2022/04/19 00:05:36;;;;;;;12.80;8.70;;;;;;;9.70;63.18;101404.97;5013560;28;20033;-51
2022/04/19 00:08:02;;;;;;;13.35;9.18;;;;;;;9.60;63.04;101404.16;5013048;28;20030;-54
2022/04/19 00:10:28;;;;;;;15.07;9.70;;;;;;;9.47;60.19;101402.63;5013234;28;20076;-54
2022/04/19 00:12:55;;;;;;;14.80;9.38;;;;;;;9.38;61.90;101383.13;5013465;28;20030;-54
2022/04/19 00:15:21;;;;;;;11.93;9.00;;;;;;;9.46;62.98;101408.91;5012541;28;20055;-54
2022/04/19 00:17:48;;;;;;;16.02;9.80;;;;;;;9.41;60.30;101405.84;5013440;28;20645;-55
2022/04/19 00:20:13;;;;;;;12.90;9.18;;;;;;;9.40;59.93;101398.88;5012905;28;20723;-54
2022/04/19 00:22:38;;;;;;;11.57;8.88;;;;;;;9.44;59.36;101402.09;5012612;28;20030;-54
2022/04/19 00:25:06;;;;;;;14.82;9.50;;;;;;;9.45;59.48;101407.25;5012581;28;20480;-54
2022/04/19 00:27:31;;;;;;;14.35;10.05;;;;;;;9.20;59.47;101398.88;5028296;28;20034;-53
2022/04/19 00:29:58;;;;;;;15.65;9.52;;;;;;;9.37;59.65;101399.19;5012248;28;20419;-55
2022/04/19 00:32:24;;;;;;;13.18;9.40;;;;;;;9.29;59.96;101392.75;5012965;28;20445;-54
2022/04/19 00:34:49;;;;;;;14.40;9.30;;;;;;;9.27;59.22;101391.22;5013684;28;20041;-54
2022/04/19 00:37:14;;;;;;;13.80;9.27;;;;;;;9.23;60.06;101393.31;5012855;28;20025;-54
2022/04/19 00:39:40;;;;;;;15.02;10.07;;;;;;;9.10;60.37;101396.25;5012260;28;20036;-54
2022/04/19 00:42:07;;;;;;;15.18;9.82;;;;;;;9.17;59.95;101383.28;5013064;28;20477;-54
2022/04/19 00:44:37;;;;;;;14.27;9.75;;;;;;;9.14;60.02;101386.22;5012688;28;20030;-53
2022/04/19 00:47:05;;;;;;;13.25;9.40;;;;;;;9.07;59.90;101387.75;5007121;28;20062;-55
2022/04/19 00:49:30;;;;;;;15.90;9.80;;;;;;;8.90;60.46;101387.44;5012691;28;20424;-54
2022/04/19 00:51:56;;;;;;;15.80;9.80;;;;;;;8.90;60.31;101387.44;5013055;28;20037;-53
2022/04/19 00:54:22;;;;;;;17.15;10.15;;;;;;;8.78;60.65;101394.63;5011579;28;20105;-51
2022/04/19 00:56:48;;;;;;;15.07;9.73;;;;;;;8.92;60.83;101390.78;5012910;28;20469;-55
2022/04/19 00:59:13;;;;;;;16.33;10.07;;;;;;;8.86;60.56;101386.03;5012393;28;20461;-52
2022/04/19 01:01:38;;;;;;;15.55;10.00;;;;;;;8.78;61.05;101383.25;5012801;28;20354;-53
2022/04/19 01:04:04;;;;;;;14.68;9.98;;;;;;;8.77;60.63;101387.69;5008202;28;20137;-54
2022/04/19 01:06:30;;;;;;;15.82;9.93;;;;;;;8.70;60.64;101387.41;5012052;28;20053;-53
2022/04/19 01:08:55;;;;;;;16.38;9.85;;;;;;;8.71;60.54;101383.78;5012143;28;20088;-51
2022/04/19 01:14:05;;;;;;;15.80;10.20;;;;;;;8.67;60.68;101392.94;5011629;28;20408;-55
2022/04/19 01:16:30;;;;;;;17.33;10.90;;;;;;;8.63;60.55;101382.78;5012752;28;20054;-54
2022/04/19 01:18:56;;;;;;;14.75;10.77;;;;;;;8.58;60.21;101380.53;5011894;28;20439;-50
2022/04/19 01:21:21;;;;;;;17.77;10.70;;;;;;;8.59;60.11;101379.59;5011467;28;20109;-55
2022/04/19 01:23:46;;;;;;;15.95;10.50;;;;;;;8.58;59.96;101380.53;5026870;28;20034;-53
2022/04/19 01:26:12;;;;;;;19.42;11.60;;;;;;;8.60;59.82;101376.78;5012014;28;20484;-52
2022/04/19 01:28:37;;;;;;;18.83;12.15;;;;;;;8.57;59.43;101376.22;5011923;28;20053;-53
2022/04/19 01:31:03;;;;;;;17.75;12.30;;;;;;;8.45;59.65;101373.66;5012404;28;20030;-54
2022/04/19 01:33:28;;;;;;;17.02;11.95;;;;;;;8.49;59.90;101379.53;5011944;28;20030;-53
2022/04/19 01:35:53;;;;;;;22.70;12.98;;;;;;;8.46;60.14;101364.78;5011938;28;20653;-55
2022/04/19 01:38:19;;;;;;;18.13;12.50;;;;;;;8.47;60.23;101370.88;5011759;28;20378;-54
2022/04/19 01:40:44;;;;;;;19.00;13.50;;;;;;;8.44;60.14;101366.69;5012229;28;20579;-51
2022/04/19 01:43:09;;;;;;;20.40;14.27;;;;;;;8.40;59.89;101370.59;5011655;28;20070;-52
2022/04/19 01:45:35;;;;;;;19.33;13.88;;;;;;;8.37;59.69;101378.78;5011566;28;20037;-53
2022/04/19 01:48:01;;;;;;;21.75;13.98;;;;;;;8.34;59.89;101371.13;5012087;28;20171;-52
2022/04/19 01:50:28;;;;;;;20.58;14.30;;;;;;;8.28;60.20;101367.19;5011801;28;20032;-52
2022/04/19 01:52:55;;;;;;;23.33;14.57;;;;;;;8.25;60.22;101364.00;5011558;28;20065;-54
2022/04/19 01:55:21;;;;;;;19.92;14.40;;;;;;;8.23;60.97;101373.88;5011548;28;20060;-54
2022/04/19 01:57:48;;;;;;;18.88;14.02;;;;;;;8.19;60.80;101368.81;5010310;28;20025;-55
2022/04/19 02:00:15;;;;;;;19.10;13.65;;;;;;;8.10;61.07;101361.72;5011175;28;20022;-49
2022/04/19 02:02:43;;;;;;;19.75;13.93;;;;;;;8.13;61.45;101369.34;5011343;28;20556;-52
2022/04/19 02:05:08;;;;;;;19.88;14.45;;;;;;;8.07;61.55;101369.88;5011233;28;20071;-54
2022/04/19 02:07:38;;;;;;;21.85;13.80;;;;;;;8.11;63.21;101366.03;5011585;28;20025;-54
2022/04/19 02:10:04;;;;;;;18.27;13.32;;;;;;;8.13;63.08;101364.06;5011446;28;20033;-53
2022/04/19 02:12:31;;;;;;;16.73;12.55;;;;;;;8.04;62.97;101370.16;5005990;28;20038;-53
2022/04/19 02:14:56;;;;;;;19.35;12.88;;;;;;;8.01;63.13;101359.84;5011421;28;20084;-50
2022/04/19 02:17:23;;;;;;;17.00;13.20;;;;;;;7.85;63.48;101362.97;5007166;28;20033;-53
2022/04/19 02:20:09;;;;;;;21.83;13.18;;;;;;;7.90;63.40;101364.25;5011660;28;20050;-52
2022/04/19 02:22:35;;;;;;;17.83;13.55;;;;;;;7.66;65.04;101362.72;5009033;28;20046;-51
2022/04/19 02:25:02;;;;;;;18.17;12.77;;;;;;;7.73;64.66;101367.47;5014208;28;20045;-53
2022/04/19 02:27:30;;;;;;;19.30;14.15;;;;;;;7.69;64.29;101358.16;5013763;28;20426;-53
2022/04/19 02:29:55;;;;;;;19.05;14.50;;;;;;;7.63;63.90;101362.97;5014893;28;20057;-50
2022/04/19 02:32:23;;;;;;;22.63;14.32;;;;;;;7.63;64.14;101357.72;5014689;28;20100;-53
2022/04/19 02:34:48;;;;;;;20.70;14.93;;;;;;;7.60;63.62;101351.84;5015436;28;20435;-53
2022/04/19 02:37:16;;;;;;;21.60;14.63;;;;;;;7.51;63.91;101348.19;5015195;28;20133;-53
2022/04/19 02:39:41;;;;;;;22.33;15.45;;;;;;;7.58;64.04;101351.13;5015140;28;20037;-52
2022/04/19 02:42:06;;;;;;;20.35;15.52;;;;;;;7.56;64.14;101353.91;5013984;28;20034;-55
2022/04/19 02:44:32;;;;;;;21.25;15.23;;;;;;;7.62;63.54;101349.91;5014049;28;20084;-53
2022/04/19 02:46:58;;;;;;;21.55;15.70;;;;;;;7.64;64.00;101351.44;5015139;28;20034;-55
2022/04/19 02:49:23;;;;;;;20.40;15.45;;;;;;;7.51;65.00;101343.72;5014824;28;20045;-53
2022/04/19 02:51:49;;;;;;;22.02;15.27;;;;;;;7.62;65.75;101348.13;5013399;28;20045;-54
2022/04/19 02:54:16;;;;;;;20.42;14.90;;;;;;;7.56;66.11;101351.28;5013540;28;20060;-52
2022/04/19 02:56:42;;;;;;;18.15;13.32;;;;;;;7.46;65.53;101350.38;5025672;28;20033;-53
2022/04/19 02:59:07;;;;;;;17.85;12.80;;;;;;;7.38;66.26;101354.47;5014627;28;20099;-50
2022/04/19 03:01:32;;;;;;;18.92;12.35;;;;;;;7.27;66.81;101346.63;5014893;28;20528;-53
2022/04/19 03:03:58;;;;;;;18.80;12.63;;;;;;;7.20;67.21;101340.19;5014187;28;20037;-52
2022/04/19 03:06:23;;;;;;;22.83;13.13;;;;;;;7.07;67.72;101337.72;5029948;28;20022;-54
2022/04/19 03:08:49;;;;;;;18.40;12.70;;;;;;;7.04;67.65;101349.34;5014457;28;20045;-53
2022/04/19 03:11:14;;;;;;;18.65;13.55;;;;;;;7.02;68.47;101343.38;5015018;28;20033;-54
2022/04/19 03:13:40;;;;;;;18.85;12.90;;;;;;;6.88;68.60;101341.84;5014237;28;20112;-54
2022/04/19 03:16:05;;;;;;;18.40;13.25;;;;;;;6.90;69.16;101349.66;5014568;28;20038;-53
2022/04/19 03:18:30;;;;;;;21.90;13.73;;;;;;;6.89;69.62;101346.16;5019249;28;20038;-53
2022/04/19 03:20:58;;;;;;;18.80;13.75;;;;;;;6.94;69.67;101341.34;5014257;28;20030;-52
2022/04/19 03:28:53;;;;;;;21.70;13.52;;;;;;;6.77;70.66;101344.53;5010243;28;20048;-53
2022/04/19 03:31:18;;;;;;;21.02;13.70;;;;;;;6.75;71.61;101347.28;5014502;28;20045;-54
2022/04/19 03:33:43;;;;;;;20.75;14.02;;;;;;;6.75;69.74;101342.00;5002516;28;20046;-54
2022/04/19 03:36:09;;;;;;;20.88;14.75;;;;;;;6.78;70.70;101347.03;5012892;28;20465;-51
2022/04/19 03:38:35;;;;;;;19.33;14.02;;;;;;;6.81;71.03;101345.94;5014334;28;20054;-52
2022/04/19 03:41:01;;;;;;;25.10;13.75;;;;;;;6.80;70.45;101349.53;5012640;28;20104;-53
2022/04/19 03:43:27;;;;;;;20.77;13.05;;;;;;;6.75;70.37;101347.28;5012958;28;20084;-53
2022/04/19 03:45:52;;;;;;;20.20;13.25;;;;;;;6.75;69.54;101347.28;5007880;28;20030;-51
2022/04/19 03:48:17;;;;;;;20.30;13.35;;;;;;;6.68;70.25;101351.38;5023103;28;20058;-53
2022/04/19 03:50:42;;;;;;;20.10;13.13;;;;;;;6.71;70.55;101345.88;5013970;28;20033;-53
2022/04/19 03:53:08;;;;;;;19.48;13.88;;;;;;;6.57;71.07;101342.50;5010405;28;20030;-53
2022/04/19 03:55:34;;;;;;;23.33;13.70;;;;;;;6.67;70.93;101339.16;5011371;28;20038;-53
2022/04/19 03:57:59;;;;;;;20.08;14.95;;;;;;;6.62;71.08;101346.59;5007594;28;20405;-54
2022/04/19 04:00:24;;;;;;;21.08;14.68;;;;;;;6.62;70.45;101336.06;5010590;28;20076;-53
2022/04/19 04:02:50;;;;;;;20.83;14.88;;;;;;;6.61;70.28;101345.75;5007479;28;20092;-53
2022/04/19 04:05:16;;;;;;;21.48;14.85;;;;;;;6.62;70.27;101341.31;5012244;28;20034;-53
2022/04/19 04:07:42;;;;;;;21.90;14.35;;;;;;;6.59;71.59;101347.66;5019226;28;20135;-52
2022/04/19 04:10:07;;;;;;;19.60;14.88;;;;;;;6.57;72.06;101347.78;5012396;28;20477;-51
2022/04/19 04:12:33;;;;;;;21.05;14.88;;;;;;;6.54;71.78;101350.69;5012820;28;20423;-53
2022/04/19 04:15:00;;;;;;;21.08;15.20;;;;;;;6.51;72.14;101345.63;5020947;28;20044;-52
2022/04/19 04:17:26;;;;;;;21.70;15.13;;;;;;;6.48;72.11;101347.69;5013536;28;20105;-50
2022/04/19 04:19:51;;;;;;;20.98;14.35;;;;;;;6.51;70.67;101343.00;5011244;28;20141;-53
2022/04/19 04:22:16;;;;;;;20.40;14.68;;;;;;;6.53;70.95;101349.00;5013166;28;20520;-53
2022/04/19 04:24:41;;;;;;;20.60;15.02;;;;;;;6.54;72.00;101345.41;5012294;28;20033;-53
2022/04/19 04:27:07;;;;;;;22.98;15.43;;;;;;;6.49;72.49;101346.72;5013431;28;20109;-53
2022/04/19 04:29:32;;;;;;;21.08;15.20;;;;;;;6.44;71.97;101345.31;5011536;28;20080;-51
2022/04/19 04:31:57;;;;;;;21.92;15.40;;;;;;;6.45;71.77;101354.03;5011982;28;20350;-52
2022/04/19 04:34:23;;;;;;;23.88;15.23;;;;;;;6.45;73.27;101351.41;5010872;28;20103;-50
2022/04/19 04:36:48;;;;;;;21.88;14.68;;;;;;;6.45;73.21;101354.03;5012494;28;20061;-50
2022/04/19 04:39:14;;;;;;;22.25;14.95;;;;;;;6.52;72.33;101357.84;5018481;28;20049;-53
2022/04/19 04:41:40;;;;;;;24.88;14.95;;;;;;;6.46;71.58;101353.06;5011964;28;20100;-51
2022/04/19 04:44:05;;;;;;;22.42;15.60;;;;;;;6.36;71.63;101352.16;5013302;28;20030;-51
2022/04/19 04:51:58;;;;;;;24.40;15.25;;;;;;;6.46;69.86;101364.47;5016783;28;20048;-53
2022/04/19 04:54:23;;;;;;;25.90;15.95;;;;;;;6.42;70.10;101362.19;5017038;28;20041;-50
2022/04/19 04:56:48;;;;;;;21.65;14.70;;;;;;;6.44;70.24;101365.53;5017405;28;20030;-53
2022/04/19 04:59:14;;;;;;;22.90;15.90;;;;;;;6.45;70.22;101357.50;5010339;28;20520;-53
2022/04/19 05:01:39;;;;;;;26.40;15.80;;;;;;;6.49;69.48;101363.38;5006153;28;20042;-53
2022/04/19 05:04:04;;;;;;;28.48;15.85;;;;;;;6.49;69.01;101357.25;5014560;28;20034;-50
2022/04/19 05:06:30;;;;;;;24.33;15.25;;;;;;;6.53;69.08;101362.19;5011785;28;20074;-53
2022/04/19 05:08:55;;;;;;;22.63;15.73;;;;;;;6.62;68.13;101359.75;5000682;28;20049;-53
2022/04/19 05:11:20;;;;;;;24.10;15.93;;;;;;;6.64;67.77;101356.06;5003197;28;20104;-52
2022/04/19 05:13:47;;;;;;;24.10;16.05;;;;;;;6.70;67.62;101362.63;5001671;28;20034;-51
2022/04/19 05:16:12;;;;;;;27.13;16.05;;;;;;;6.74;67.06;101356.16;5003446;28;20042;-52
2022/04/19 05:18:37;;;;;;;24.65;16.98;;;;;;;6.80;66.91;101366.19;5005221;28;20053;-53
2022/04/19 05:21:03;;;;;;;24.35;16.27;;;;;;;6.91;67.13;101367.13;5011993;28;20036;-53
2022/04/19 05:23:29;;;;;;;23.05;16.00;;;;;;;6.96;65.89;101375.50;5003231;28;20368;-53
2022/04/19 05:25:54;;;;;;;22.88;15.55;;;;;;;7.02;65.81;101364.47;5002803;28;20038;-53
2022/04/19 05:28:19;;;;;;;22.05;15.90;;;;;;;7.12;65.73;101368.00;5003164;28;20038;-53
2022/04/19 05:30:45;;;;;;;23.98;16.17;;;;;;;7.17;65.55;101372.94;5007101;28;20460;-50
2022/04/19 05:33:11;;;;;;;21.40;15.60;;;;;;;7.26;64.29;101371.34;5017590;28;20088;-58
2022/04/19 05:35:39;;;;;;;23.30;16.17;;;;;;;7.30;63.96;101372.72;5000539;28;20038;-57
2022/04/19 05:38:05;;;;;;;23.38;16.45;;;;;;;7.35;64.44;101370.56;5007681;28;20037;-57
2022/04/19 05:40:31;;;;;;;25.70;16.50;;;;;;;7.38;64.17;101367.69;5006288;28;20026;-57
2022/04/19 05:42:57;;;;;;;24.38;16.95;;;;;;;7.45;63.87;101365.34;5009655;28;20070;-57
2022/04/19 05:45:23;;;;;;;23.55;16.58;;;;;;;7.54;64.02;101371.66;5005194;28;20481;-57
2022/04/19 05:47:49;;;;;;;24.23;16.67;;;;;;;7.61;63.90;101367.53;5004240;28;20030;-58
2022/04/19 05:50:14;;;;;;;23.55;16.73;;;;;;;7.65;63.45;101371.59;5004992;28;20062;-58
2022/04/19 05:52:39;;;;;;;27.30;17.60;;;;;;;7.75;63.71;101370.84;5007937;28;20033;-58
2022/04/19 05:55:05;;;;;;;28.88;17.83;;;;;;;7.81;63.48;101376.41;5002148;28;20034;-58
2022/04/19 05:57:31;;;;;;;25.55;17.45;;;;;;;7.88;63.20;101374.09;5018181;28;20037;-57
2022/04/19 05:59:56;;;;;;;25.98;16.63;;;;;;;7.99;62.38;101382.94;5001589;28;20026;-56
2022/04/19 06:05:06;;;;;;;24.10;16.77;;;;;;;8.14;61.29;101386.06;5002443;28;20088;-58
2022/04/19 06:07:31;;;;;;;25.60;16.63;;;;;;;8.20;61.21;101381.06;5013669;28;20033;-57
2022/04/19 06:09:58;;;;;;;26.42;17.48;;;;;;;8.24;62.10;101378.19;5006624;28;20377;-57
2022/04/19 06:12:23;;;;;;;24.05;16.15;;;;;;;8.30;61.48;101390.84;5004912;28;20477;-56
2022/04/19 06:14:48;;;;;;;23.25;17.08;;;;;;;8.37;61.53;101396.44;5002326;28;20132;-58
2022/04/19 06:17:16;;;;;;;25.40;17.17;;;;;;;8.44;61.48;101393.13;5007533;28;20036;-58
2022/04/19 06:19:41;;;;;;;25.25;16.88;;;;;;;8.50;60.65;101389.13;5000096;28;20046;-58
2022/04/19 06:22:07;;;;;;;25.17;16.60;;;;;;;8.58;60.52;101393.75;5001325;28;20037;-57
2022/04/19 06:24:32;;;;;;;24.67;16.27;;;;;;;8.63;59.01;101391.53;5004201;28;20056;-58
2022/04/19 06:26:57;;;;;;;22.55;15.13;;;;;;;8.72;58.21;101390.75;5016080;28;20075;-57
2022/04/19 06:29:23;;;;;;;23.42;15.18;;;;;;;8.79;58.42;101390.19;5013442;28;20464;-56
2022/04/19 06:31:48;;;;;;;24.33;15.90;;;;;;;8.89;58.11;101396.34;5010249;28;20107;-57
2022/04/19 06:34:13;;;;;;;23.20;15.38;;;;;;;8.93;57.84;101397.72;5027403;28;20033;-58
2022/04/19 06:36:38;;;;;;;24.95;15.35;;;;;;;9.02;58.51;101391.63;5010256;28;20061;-58
2022/04/19 06:39:04;;;;;;;23.98;16.00;;;;;;;9.10;57.77;101393.59;5003320;28;20068;-58
2022/04/19 06:41:29;;;;;;;24.88;15.45;;;;;;;9.21;58.86;101400.56;5001188;28;20105;-58
2022/04/19 06:43:58;;;;;;;24.20;16.35;;;;;;;9.31;57.86;101399.72;5015393;28;20140;-58
2022/04/19 06:46:26;;;;;;;25.90;15.35;;;;;;;9.42;57.22;101396.91;5018924;28;20030;-57
2022/04/19 06:48:54;;;;;;;24.05;15.18;;;;;;;9.54;57.45;101395.78;5010252;28;20056;-58
2022/04/19 06:51:20;;;;;;;25.52;15.70;;;;;;;9.68;55.51;101397.19;5013613;28;20030;-57
2022/04/19 06:53:45;;;;;;;22.55;14.77;;;;;;;9.77;54.93;101406.09;5011317;28;20036;-58
2022/04/19 06:56:11;;;;;;;22.40;14.75;;;;;;;9.82;54.78;101395.91;5011438;28;20022;-55
2022/04/19 06:58:36;;;;;;;25.80;14.32;;;;;;;9.90;54.34;101399.63;5010856;28;20037;-54
2022/04/19 07:01:01;;;;;;;22.95;13.60;;;;;;;10.01;53.94;101402.13;5008525;28;20523;-55
2022/04/19 07:03:26;;;;;;;21.42;13.77;;;;;;;10.06;53.24;101399.88;5012687;28;20029;-54
2022/04/19 07:05:52;;;;;;;22.77;14.90;;;;;;;10.16;53.51;101399.03;5001867;28;20036;-56
2022/04/19 07:08:17;;;;;;;23.80;14.10;;;;;;;10.23;53.48;101405.41;5001258;28;20030;-55
2022/04/19 07:10:42;;;;;;;24.02;14.60;;;;;;;10.30;53.78;101406.50;5004521;28;20025;-54
2022/04/19 07:13:08;;;;;;;22.58;13.57;;;;;;;10.43;52.42;101405.34;5007941;28;20034;-55
2022/04/19 07:15:33;;;;;;;25.48;13.48;;;;;;;10.53;52.43;101411.47;5019874;28;20029;-56
2022/04/19 07:17:59;;;;;;;21.88;14.00;;;;;;;10.62;52.63;101407.91;5021083;28;20033;-57
2022/04/19 07:28:36;;;;;;;22.65;13.23;;;;;;;11.04;50.44;101397.75;5005570;28;20049;-56
2022/04/19 07:31:03;;;;;;;21.65;13.30;;;;;;;11.14;51.90;101411.78;5002916;28;20042;-56
2022/04/19 07:33:29;;;;;;;21.50;13.32;;;;;;;11.19;50.49;101416.63;5010794;28;22049;-55
2022/04/19 07:35:55;;;;;;;21.67;12.88;;;;;;;11.27;49.54;101413.22;5012230;28;20033;-57
2022/04/19 07:38:20;;;;;;;21.27;12.55;;;;;;;11.37;50.28;101419.31;5005920;28;20026;-58
2022/04/19 07:40:46;;;;;;;20.02;12.40;;;;;;;11.48;50.13;101420.03;5013530;28;20030;-58
2022/04/19 07:43:11;;;;;;;20.55;12.85;;;;;;;11.60;49.97;101415.34;5018570;28;20583;-58
2022/04/19 07:45:37;;;;;;;20.17;12.70;;;;;;;11.70;50.33;101411.59;5008338;28;20030;-58
2022/04/19 07:48:04;;;;;;;24.13;13.32;;;;;;;11.80;50.46;101418.63;5010378;28;20073;-58
2022/04/19 07:50:30;;;;;;;22.25;12.82;;;;;;;11.89;50.67;101414.22;5012487;28;20029;-57
2022/04/19 07:52:55;;;;;;;21.95;13.07;;;;;;;12.02;50.05;101416.44;5002091;28;21664;-58
2022/04/19 07:55:21;;;;;;;20.50;13.07;;;;;;;12.10;50.85;101413.88;5005714;28;20030;-58
2022/04/19 07:57:46;;;;;;;20.38;12.63;;;;;;;12.19;50.27;101412.91;5013487;28;20377;-58
2022/04/19 08:00:13;;;;;;;21.83;13.05;;;;;;;12.24;49.54;101418.59;5009915;28;20029;-58
2022/04/19 08:02:39;;;;;;;23.13;13.15;;;;;;;12.35;49.68;101417.47;5002204;28;20027;-58
2022/04/19 08:05:04;;;;;;;21.90;13.20;;;;;;;12.43;50.05;101415.88;4999448;28;20025;-57
2022/04/19 08:07:30;;;;;;;22.45;12.57;;;;;;;12.50;49.75;101409.72;5027627;28;20034;-58
2022/04/19 08:09:58;;;;;;;20.00;12.23;;;;;;;12.65;49.39;101411.78;5007353;28;20049;-58
2022/04/19 08:12:24;;;;;;;19.77;12.45;;;;;;;12.73;48.86;101406.50;5009772;28;20022;-58
2022/04/19 08:14:49;;;;;;;20.85;12.45;;;;;;;12.81;48.48;101410.16;5004963;28;20034;-58
2022/04/19 08:17:14;;;;;;;22.95;12.38;;;;;;;12.96;48.61;101413.88;5009898;28;20368;-57
2022/04/19 08:19:40;;;;;;;19.65;11.60;;;;;;;13.07;47.99;101401.25;5011078;28;20058;-58
2022/04/19 08:22:05;;;;;;;20.88;11.98;;;;;;;13.14;47.84;101408.44;5006908;28;20452;-58
2022/04/19 08:24:30;;;;;;;19.88;12.00;;;;;;;13.20;47.00;101409.59;5004422;28;20041;-58
2022/04/19 08:26:55;;;;;;;20.05;12.00;;;;;;;13.26;46.84;101403.59;5003705;28;20045;-55
2022/04/19 08:29:21;;;;;;;20.48;11.43;;;;;;;13.36;46.97;101407.94;5019933;28;20116;-57
2022/04/19 08:31:46;;;;;;;17.48;10.68;;;;;;;13.41;46.09;101406.44;5004350;28;20038;-58
2022/04/19 08:34:12;;;;;;;18.85;9.98;;;;;;;13.44;45.96;101399.94;5005730;28;20041;-58
2022/04/19 08:36:38;;;;;;;19.13;10.10;;;;;;;13.52;44.86;101391.97;5022133;28;20044;-59
2022/04/19 08:39:04;;;;;;;19.10;10.45;;;;;;;13.56;45.29;101403.97;5009250;28;20495;-58
2022/04/19 08:41:30;;;;;;;19.48;10.50;;;;;;;13.62;45.27;101401.63;5014706;28;20687;-58
2022/04/19 08:43:55;;;;;;;17.92;10.13;;;;;;;13.68;45.93;101395.63;5023616;28;20033;-58
2022/04/19 08:46:21;;;;;;;16.70;9.32;;;;;;;13.79;44.14;101397.94;5006704;28;20040;-58
2022/04/19 08:48:47;;;;;;;15.43;8.63;;;;;;;13.82;43.10;101397.59;5004717;28;20838;-58
2022/04/19 08:51:15;;;;;;;15.05;8.45;;;;;;;13.92;42.59;101407.25;5008220;28;20110;-58
2022/04/19 08:59:10;;;;;;;12.73;7.40;;;;;;;14.14;41.22;101400.38;5007377;28;20052;-58
2022/04/19 09:01:35;;;;;;;11.80;7.13;;;;;;;14.25;41.28;101402.66;5006308;28;20046;-58
2022/04/19 09:04:04;;;;;;;13.23;6.75;;;;;;;14.34;41.48;101399.94;5008408;28;20057;-57
2022/04/19 09:06:54;;;;;;;13.30;6.70;;;;;;;14.37;42.52;101400.44;5010743;28;20037;-58
2022/04/19 09:09:24;;;;;;;14.20;7.50;;;;;;;14.39;41.26;101395.78;5004669;28;20481;-58
2022/04/19 09:11:50;;;;;;;11.80;6.95;;;;;;;14.38;40.02;101391.44;5000425;28;20485;-58
2022/04/19 09:14:17;;;;;;;12.45;6.85;;;;;;;14.42;41.55;101394.59;5004823;28;20084;-57
2022/04/19 09:16:43;;;;;;;11.75;7.00;;;;;;;14.47;40.34;101394.91;4998025;28;20369;-57
2022/04/19 09:19:08;;;;;;;12.70;7.20;;;;;;;14.49;40.27;101386.72;4998981;28;20189;-58
2022/04/19 09:21:40;;;;;;;11.65;6.72;;;;;;;14.57;40.58;101383.19;5004895;28;20080;-58
2022/04/19 09:24:22;;;;;;;14.18;6.80;;;;;;;14.56;41.23;101382.34;5005521;28;20030;-58
2022/04/19 09:26:49;;;;;;;12.85;7.20;;;;;;;14.62;40.39;101389.69;4996280;28;20451;-58
2022/04/19 09:29:22;;;;;;;12.15;7.30;;;;;;;14.69;40.33;101381.78;4995942;28;20030;-58
2022/04/19 09:31:51;;;;;;;11.90;6.75;;;;;;;14.76;39.78;101387.28;5005078;28;20461;-59
2022/04/19 09:34:33;;;;;;;11.25;6.80;;;;;;;14.72;39.95;101375.25;5009814;28;20624;-58
2022/04/19 09:37:12;;;;;;;11.82;6.53;;;;;;;14.74;40.54;101362.56;5010532;28;20416;-57
2022/04/19 09:39:39;;;;;;;13.85;6.38;;;;;;;14.98;40.49;101368.78;5011165;28;20713;-58
2022/04/19 09:42:07;;;;;;;10.57;6.07;;;;;;;15.02;39.33;101367.41;5007133;28;20037;-58
2022/04/19 09:44:37;;;;;;;12.48;6.13;;;;;;;15.12;38.66;101376.03;5021132;28;20496;-58
2022/04/19 09:47:13;;;;;;;9.93;5.70;;;;;;;15.13;38.84;101372.34;5023227;28;20030;-57
2022/04/19 09:49:44;;;;;;;10.25;5.38;;;;;;;15.20;39.28;101365.28;5008413;28;20600;-58
2022/04/19 09:52:13;;;;;;;12.10;6.10;;;;;;;15.31;38.06;101379.22;5004706;28;20057;-54
2022/04/19 09:54:40;;;;;;;9.15;5.53;;;;;;;15.42;38.94;101376.13;5002260;28;20096;-54
2022/04/19 09:57:09;;;;;;;11.13;6.32;;;;;;;15.51;39.22;101373.38;5016649;28;20022;-54
2022/04/19 09:59:42;;;;;;;10.80;5.80;;;;;;;15.54;37.92;101368.50;5004519;28;20040;-55
2022/04/19 10:10:24;;;;;;;10.15;5.90;;;;;;;15.80;37.24;101361.06;5008614;28;20045;-54
2022/04/19 10:12:51;;;;;;;11.02;5.82;;;;;;;15.87;37.28;101361.97;4999529;28;20056;-57
2022/04/19 10:15:16;;;;;;;11.85;6.38;;;;;;;15.89;37.26;101359.94;4996866;28;20035;-54
2022/04/19 10:17:42;;;;;;;9.70;5.95;;;;;;;15.94;37.11;101365.59;4999532;28;20033;-56
2022/04/19 10:20:08;;;;;;;10.75;6.00;;;;;;;15.97;38.05;101357.22;5019668;28;20091;-56
2022/04/19 10:22:33;;;;;;;10.88;6.50;;;;;;;16.00;36.83;101351.50;5003013;28;20034;-55
2022/04/19 10:25:01;;;;;;;11.20;6.47;;;;;;;15.97;36.68;101362.56;5003765;28;20026;-54
2022/04/19 10:27:31;;;;;;;11.48;6.30;;;;;;;16.02;38.17;101358.53;5003815;28;20646;-55
2022/04/19 10:29:56;;;;;;;12.50;6.60;;;;;;;16.05;37.66;101364.34;4999089;28;20033;-55
2022/04/19 10:32:35;;;;;;;14.35;6.68;;;;;;;16.11;37.04;101362.75;5000403;28;20084;-54
2022/04/19 10:35:02;;;;;;;12.93;6.80;;;;;;;16.22;37.48;101370.31;5000671;28;20468;-56
2022/04/19 10:37:29;;;;;;;8.85;5.40;;;;;;;16.32;36.08;101361.19;5018572;28;20029;-55
2022/04/19 10:40:03;;;;;;;13.93;5.65;;;;;;;16.29;34.72;101358.84;5002545;28;20121;-55
2022/04/19 10:42:30;;;;;;;10.43;6.18;;;;;;;16.30;36.56;101352.47;5024208;28;20113;-53
2022/04/19 10:44:56;;;;;;;14.60;6.70;;;;;;;16.32;35.95;101358.50;5014927;28;20034;-53
2022/04/19 10:47:23;;;;;;;13.70;6.80;;;;;;;16.36;37.88;101357.94;5014459;28;20030;-55
2022/04/19 10:49:57;;;;;;;10.90;6.90;;;;;;;16.40;36.69;101353.03;5015550;28;20069;-55
2022/04/19 10:52:38;;;;;;;11.85;6.72;;;;;;;16.53;37.89;101344.34;5013904;28;20179;-54
2022/04/19 10:55:06;;;;;;;12.02;6.50;;;;;;;16.52;36.29;101335.47;5014448;28;20038;-53
2022/04/19 11:00:31;;;;;;;13.52;7.03;;;;;;;16.64;36.84;101340.31;5014083;28;20092;-54
2022/04/19 11:03:17;;;;;;;10.93;6.60;;;;;;;16.72;37.63;101342.06;5013916;28;20037;-54
2022/04/19 11:05:50;;;;;;;12.23;6.93;;;;;;;16.70;37.97;101339.56;5013851;28;20041;-55
2022/04/19 11:08:24;;;;;;;11.85;6.82;;;;;;;16.75;38.01;101331.78;5012553;28;20125;-55
2022/04/19 11:11:21;;;;;;;16.65;7.47;;;;;;;16.87;37.07;101331.28;5013439;28;20350;-55
2022/04/19 11:14:15;;;;;;;13.50;6.40;;;;;;;16.94;37.26;101327.63;5001431;28;20151;-55
2022/04/19 11:16:40;;;;;;;11.10;6.35;;;;;;;16.96;34.38;101327.44;5013885;28;20026;-54
2022/04/19 11:19:14;;;;;;;12.35;6.10;;;;;;;16.92;35.54;101323.47;5010611;28;20061;-55
2022/04/19 11:21:54;;;;;;;11.90;6.35;;;;;;;17.03;35.98;101327.53;5019954;28;20066;-58
2022/04/19 11:24:57;;;;;;;10.52;6.20;;;;;;;17.13;37.07;101321.84;5011116;28;20026;-55
2022/04/19 11:27:23;;;;;;;11.55;6.38;;;;;;;17.11;35.00;101323.91;5012991;28;20457;-54
2022/04/19 11:29:51;;;;;;;11.52;6.70;;;;;;;17.17;35.39;101317.78;5013647;28;20025;-56
2022/04/19 11:32:21;;;;;;;11.98;5.43;;;;;;;17.11;34.73;101305.16;5022459;28;20477;-53
2022/04/19 11:35:01;;;;;;;11.13;5.95;;;;;;;17.31;35.56;101314.16;5012681;28;20022;-55
2022/04/19 11:37:26;;;;;;;13.25;6.40;;;;;;;17.26;34.93;101318.47;5019689;28;20034;-54
2022/04/19 11:48:09;;;;;;;10.82;6.10;;;;;;;17.54;34.59;101314.94;5009986;28;20052;-56
2022/04/19 11:50:35;;;;;;;12.27;6.90;;;;;;;17.63;34.88;101320.97;5013436;28;20037;-54
2022/04/19 11:53:01;;;;;;;11.25;6.53;;;;;;;17.55;33.26;101322.78;5013684;28;20022;-56
2022/04/19 11:55:27;;;;;;;11.27;5.93;;;;;;;17.57;34.96;101328.75;5009431;28;20156;-54
2022/04/19 11:58:05;;;;;;;10.85;5.80;;;;;;;17.68;34.41;101318.53;5010697;28;20037;-56
2022/04/19 12:00:31;;;;;;;13.73;6.43;;;;;;;17.67;34.05;101323.03;5013340;28;20050;-56
2022/04/19 12:02:58;;;;;;;12.75;6.40;;;;;;;17.74;36.22;101323.09;5007869;28;20038;-55
2022/04/19 12:05:26;;;;;;;13.82;6.35;;;;;;;17.71;34.40;101318.16;5012750;28;20109;-55